Weather at Dwight Airport

Public forecast

Using degrees Fahrenheit for public forecast. Weather courtesy of forecast.io.

Closest aviation weather report (METAR) to Dwight Airport

Closest report is Pontiac Municipal Airport, 15.1 nm (27.9 km) SSW. Retrieved 2021/10/15 22:35 UTC (0 seconds ago):

KPNT 152235Z AUTO 29004KT 10SM -RA SCT070 OVC080 13/09 A2993 RMK AO2 P0001 T01300086

Closest aviation forecast (TAF) to Dwight Airport

Closest forecast is Central Illinois Regional Airport at Bloomington-Normal, 44.9 nm (83.2 km) SSW. Retrieved 2021/10/15 18:22 UTC (4 hours ago):

TAF KBMI 151720Z 1518/1618 35009KT P6SM VCSH OVC035 FM160200 30008KT P6SM BKN070 FM161500 29011G20KT P6SM SKC